createdAt,value
2018-12-02T00:01:35.215Z,8.40
2018-12-02T00:03:38.569Z,8.40
2018-12-02T00:05:47.055Z,8.50
2018-12-02T00:07:50.318Z,7.00
2018-12-02T00:09:53.972Z,8.40
2018-12-02T00:11:57.238Z,8.30
2018-12-02T00:14:00.496Z,8.40
2018-12-02T00:16:05.752Z,8.30
2018-12-02T00:18:11.228Z,8.40
2018-12-02T00:20:15.221Z,8.60
2018-12-02T00:22:18.532Z,8.40
2018-12-02T00:24:22.567Z,8.40
2018-12-02T00:26:27.600Z,8.30
2018-12-02T00:28:30.872Z,8.30
2018-12-02T00:30:34.453Z,8.60
2018-12-02T00:32:37.728Z,8.60
2018-12-02T00:34:41.954Z,8.40
2018-12-02T00:36:46.104Z,8.40
2018-12-02T00:38:49.352Z,8.50
2018-12-02T00:40:52.608Z,8.70
2018-12-02T00:42:56.805Z,8.40
2018-12-02T00:45:00.037Z,8.60
2018-12-02T00:47:05.477Z,8.50
2018-12-02T00:49:08.719Z,8.90
2018-12-02T00:51:11.974Z,8.70
2018-12-02T00:53:15.292Z,8.60
2018-12-02T00:55:23.415Z,8.60
2018-12-02T00:57:27.712Z,8.60
2018-12-02T00:59:31.010Z,8.50
2018-12-02T01:01:34.252Z,8.60
2018-12-02T01:03:37.500Z,8.50
2018-12-02T01:05:41.244Z,8.20
2018-12-02T01:07:48.268Z,8.70
2018-12-02T01:09:51.579Z,8.50
2018-12-02T01:11:55.112Z,8.60
2018-12-02T01:13:58.347Z,8.50
2018-12-02T01:18:06.523Z,8.70
2018-12-02T01:20:11.963Z,8.70
2018-12-02T01:22:15.208Z,8.80
2018-12-02T01:24:19.329Z,8.90
2018-12-02T01:26:23.612Z,8.80
2018-12-02T01:28:27.840Z,8.70
2018-12-02T01:30:31.128Z,8.80
2018-12-02T01:32:34.380Z,8.70
2018-12-02T01:34:37.612Z,8.60
2018-12-02T01:36:41.263Z,8.80
2018-12-02T01:38:45.380Z,8.70
2018-12-02T01:40:48.667Z,8.80
2018-12-02T01:42:53.195Z,8.90
2018-12-02T01:44:56.441Z,8.50
2018-12-02T01:46:59.700Z,8.80
2018-12-02T01:49:05.036Z,8.60
2018-12-02T01:51:08.285Z,8.80
2018-12-02T01:53:11.536Z,8.80
2018-12-02T01:55:14.843Z,8.80
2018-12-02T01:57:18.135Z,8.80
2018-12-02T01:59:22.324Z,8.80
2018-12-02T02:01:25.894Z,8.80
2018-12-02T02:03:29.156Z,8.80
2018-12-02T02:05:32.387Z,8.50
2018-12-02T02:07:35.676Z,8.60
2018-12-02T02:09:40.728Z,8.80
2018-12-02T02:11:43.976Z,8.70
2018-12-02T02:13:47.272Z,9.00
2018-12-02T02:15:50.540Z,8.70
2018-12-02T02:17:53.804Z,8.80
2018-12-02T02:19:59.700Z,8.90
2018-12-02T02:22:03.032Z,8.80
2018-12-02T02:24:06.538Z,8.60
2018-12-02T02:26:09.798Z,8.70
2018-12-02T02:28:14.349Z,8.60
2018-12-02T02:30:21.425Z,8.50
2018-12-02T02:32:24.701Z,8.50
2018-12-02T02:34:27.977Z,8.70
2018-12-02T02:36:31.228Z,8.70
2018-12-02T02:38:34.933Z,8.80
2018-12-02T02:42:42.332Z,8.80
2018-12-02T02:44:45.598Z,8.50
2018-12-02T02:46:48.844Z,8.60
2018-12-02T02:48:52.088Z,8.80
2018-12-02T02:50:56.800Z,8.70
2018-12-02T02:53:01.115Z,8.50
2018-12-02T02:55:04.764Z,8.50
2018-12-02T02:57:09.601Z,8.40
2018-12-02T02:59:12.828Z,8.20
2018-12-02T03:01:20.552Z,8.40
2018-12-02T03:03:24.349Z,8.40
2018-12-02T03:05:28.269Z,8.30
2018-12-02T03:07:32.198Z,8.50
2018-12-02T03:09:36.105Z,8.10
2018-12-02T03:11:40.965Z,8.40
2018-12-02T03:13:46.087Z,8.20
2018-12-02T03:15:49.541Z,8.20
2018-12-02T03:17:54.044Z,8.20
2018-12-02T03:19:58.915Z,8.20
2018-12-02T03:22:05.137Z,8.40
2018-12-02T03:24:09.041Z,8.10
2018-12-02T03:26:13.496Z,8.10
2018-12-02T03:28:17.264Z,8.10
2018-12-02T03:30:22.058Z,7.80
2018-12-02T03:32:26.905Z,8.00
2018-12-02T03:34:30.808Z,7.70
2018-12-02T03:36:34.680Z,7.70
2018-12-02T03:38:38.649Z,7.80
2018-12-02T03:40:42.528Z,7.80
2018-12-02T03:42:51.453Z,7.60
2018-12-02T03:44:55.679Z,8.00
2018-12-02T03:46:59.876Z,7.90
2018-12-02T03:49:04.636Z,7.80
2018-12-02T03:51:08.552Z,7.60
2018-12-02T03:53:13.279Z,7.50
2018-12-02T03:55:17.725Z,7.90
2018-12-02T03:57:22.677Z,7.50
2018-12-02T03:59:27.740Z,7.60
2018-12-02T04:01:32.352Z,7.70
2018-12-02T04:03:38.068Z,7.70
2018-12-02T04:05:42.580Z,7.70
2018-12-02T04:07:46.428Z,7.70
2018-12-02T04:09:51.048Z,7.60
2018-12-02T04:11:54.919Z,7.80
2018-12-02T04:14:00.163Z,7.60
2018-12-02T04:16:04.125Z,7.80
2018-12-02T04:18:10.175Z,7.80
2018-12-02T04:20:14.923Z,7.70
2018-12-02T04:22:19.651Z,7.70
2018-12-02T04:24:26.344Z,7.70
2018-12-02T04:26:30.124Z,7.60
2018-12-02T04:28:34.124Z,7.60
2018-12-02T04:30:38.093Z,7.70
2018-12-02T04:32:42.262Z,7.80
2018-12-02T04:34:48.086Z,7.70
2018-12-02T04:36:52.964Z,7.60
2018-12-02T04:38:56.804Z,7.70
2018-12-02T04:41:01.411Z,7.80
2018-12-02T04:43:06.720Z,7.60
2018-12-02T04:45:15.264Z,8.20
2018-12-02T04:47:20.225Z,7.80
2018-12-02T04:49:24.653Z,7.80
2018-12-02T04:51:28.497Z,7.80
2018-12-02T04:53:33.488Z,7.80
2018-12-02T04:57:41.774Z,7.70
2018-12-02T04:59:45.612Z,7.70
2018-12-02T05:01:51.249Z,7.60
2018-12-02T05:03:54.931Z,7.80
2018-12-02T05:06:00.184Z,7.60
2018-12-02T05:08:04.751Z,7.80
2018-12-02T05:10:12.547Z,7.80
2018-12-02T05:12:16.826Z,7.70
2018-12-02T05:14:20.727Z,7.60
2018-12-02T05:16:25.612Z,7.80
2018-12-02T05:18:29.864Z,7.80
2018-12-02T05:20:34.232Z,7.60
2018-12-02T05:22:38.132Z,7.60
2018-12-02T05:24:42.102Z,7.60
2018-12-02T05:26:49.456Z,7.60
2018-12-02T05:28:54.457Z,7.80
2018-12-02T05:33:01.977Z,7.60
2018-12-02T05:35:05.873Z,7.70
2018-12-02T05:37:11.986Z,7.70
2018-12-02T05:39:15.858Z,7.90
2018-12-02T05:41:19.839Z,7.80
2018-12-02T05:43:24.058Z,7.70
2018-12-02T05:45:27.968Z,7.60
2018-12-02T05:47:35.136Z,7.60
2018-12-02T05:49:39.304Z,7.80
2018-12-02T05:51:43.980Z,7.80
2018-12-02T05:53:47.912Z,7.90
2018-12-02T05:55:52.355Z,7.70
2018-12-02T05:57:57.439Z,7.80
2018-12-02T06:00:01.395Z,7.70
2018-12-02T06:02:07.218Z,7.70
2018-12-02T06:04:11.207Z,7.70
2018-12-02T06:06:15.649Z,7.70
2018-12-02T06:08:21.752Z,7.80
2018-12-02T06:10:25.602Z,8.00
2018-12-02T06:12:29.624Z,7.80
2018-12-02T06:14:34.023Z,8.00
2018-12-02T06:18:43.077Z,8.00
2018-12-02T06:20:47.651Z,7.90
2018-12-02T06:22:52.363Z,7.80
2018-12-02T06:24:56.726Z,7.60
2018-12-02T06:27:01.079Z,7.80
2018-12-02T06:29:09.204Z,7.60
2018-12-02T06:31:13.180Z,7.70
2018-12-02T06:33:19.417Z,7.90
2018-12-02T06:35:23.331Z,7.90
2018-12-02T06:37:28.057Z,7.80
2018-12-02T06:39:33.237Z,7.90
2018-12-02T06:41:37.660Z,7.90
2018-12-02T06:43:41.603Z,7.90
2018-12-02T06:45:45.959Z,7.90
2018-12-02T06:47:50.444Z,7.90
2018-12-02T06:49:56.592Z,7.70
2018-12-02T06:52:01.268Z,7.90
2018-12-02T06:54:05.944Z,7.90
2018-12-02T06:56:20.044Z,8.10
2018-12-02T06:58:40.755Z,7.80
2018-12-02T07:00:54.576Z,8.20
2018-12-02T07:03:07.864Z,8.00
2018-12-02T07:05:16.047Z,8.00
2018-12-02T07:07:19.952Z,7.90
2018-12-02T07:09:24.440Z,8.20
2018-12-02T07:11:34.268Z,8.00
2018-12-02T07:13:38.236Z,8.00
2018-12-02T07:15:43.568Z,8.10
2018-12-02T07:17:49.797Z,8.20
2018-12-02T07:19:55.981Z,8.10
2018-12-02T07:22:08.469Z,7.90
2018-12-02T07:24:15.964Z,8.20
2018-12-02T07:26:22.948Z,8.20
2018-12-02T07:28:27.508Z,8.20
2018-12-02T07:30:31.948Z,8.10
2018-12-02T07:32:38.622Z,8.20
2018-12-02T07:34:43.848Z,8.40
2018-12-02T07:36:47.893Z,8.20
2018-12-02T07:39:02.968Z,8.20
2018-12-02T07:41:08.069Z,8.40
2018-12-02T07:43:13.531Z,8.30
2018-12-02T07:45:17.480Z,8.50
2018-12-02T07:47:21.410Z,8.30
2018-12-02T07:49:26.412Z,8.60
2018-12-02T07:51:30.977Z,8.30
2018-12-02T07:53:36.914Z,8.40
2018-12-02T07:55:40.787Z,8.30
2018-12-02T07:57:47.409Z,8.30
2018-12-02T07:59:51.185Z,8.50
2018-12-02T08:01:55.012Z,8.30
2018-12-02T08:04:00.201Z,8.30
2018-12-02T08:06:04.704Z,8.50
2018-12-02T08:08:10.208Z,8.70
2018-12-02T08:10:16.613Z,8.60
2018-12-02T08:12:20.484Z,8.60
2018-12-02T08:14:26.755Z,8.60
2018-12-02T08:16:31.867Z,8.60
2018-12-02T08:20:39.285Z,8.60
2018-12-02T08:24:47.640Z,8.70
2018-12-02T08:26:52.444Z,9.00
2018-12-02T08:28:56.417Z,9.00
2018-12-02T08:31:00.303Z,8.90
2018-12-02T08:33:05.039Z,9.00
2018-12-02T08:35:11.561Z,9.10
2018-12-02T08:39:17.899Z,9.00
2018-12-02T08:41:22.059Z,8.90
2018-12-02T08:43:25.352Z,9.00
2018-12-02T08:45:29.769Z,9.00
2018-12-02T08:47:33.405Z,9.10
2018-12-02T08:51:41.465Z,9.30
2018-12-02T08:53:44.730Z,9.30
2018-12-02T08:55:51.648Z,9.10
2018-12-02T08:57:55.077Z,9.30
2018-12-02T08:59:58.465Z,9.30
2018-12-02T09:02:01.720Z,9.30
2018-12-02T09:04:05.911Z,9.40
2018-12-02T09:06:09.976Z,9.40
2018-12-02T09:08:13.225Z,9.50
2018-12-02T09:10:21.600Z,9.40
2018-12-02T09:12:24.846Z,9.10
2018-12-02T09:14:28.288Z,9.30
2018-12-02T09:16:34.780Z,9.50
2018-12-02T09:18:38.052Z,9.50
2018-12-02T09:22:44.333Z,9.30
2018-12-02T09:24:47.795Z,9.30
2018-12-02T09:28:55.040Z,9.30
2018-12-02T09:30:59.011Z,9.30
2018-12-02T09:33:02.249Z,9.20
2018-12-02T09:35:05.771Z,9.30
2018-12-02T09:37:12.640Z,9.30
2018-12-02T09:39:18.428Z,9.30
2018-12-02T09:41:19.196Z,9.40
2018-12-02T09:43:22.600Z,9.40
2018-12-02T09:45:26.972Z,7.20
2018-12-02T09:47:31.063Z,9.20
2018-12-02T09:49:34.308Z,9.40
2018-12-02T09:51:37.583Z,9.50
2018-12-02T09:53:40.872Z,9.40
2018-12-02T09:55:45.781Z,9.60
2018-12-02T09:57:51.294Z,9.50
2018-12-02T09:59:54.560Z,9.30
2018-12-02T10:01:57.888Z,9.60
2018-12-02T10:06:04.397Z,9.40
2018-12-02T10:08:08.570Z,9.60
2018-12-02T10:10:22.682Z,9.50
2018-12-02T10:12:23.872Z,9.60
2018-12-02T10:14:27.165Z,9.50
2018-12-02T10:16:30.432Z,9.60
2018-12-02T10:18:37.553Z,9.50
2018-12-02T10:20:40.842Z,9.60
2018-12-02T10:22:45.084Z,9.60
2018-12-02T10:24:49.201Z,9.70
2018-12-02T10:26:52.533Z,9.70
2018-12-02T10:28:56.804Z,9.80
2018-12-02T10:31:00.076Z,9.80
2018-12-02T10:33:03.373Z,9.70
2018-12-02T10:35:06.674Z,10.00
2018-12-02T10:38:34.607Z,10.00
2018-12-02T10:40:39.271Z,10.00
2018-12-02T10:42:42.901Z,10.00
2018-12-02T10:44:47.713Z,9.90
2018-12-02T10:46:51.421Z,9.80
2018-12-02T10:48:54.746Z,10.00
2018-12-02T10:50:59.097Z,10.00
2018-12-02T10:53:03.996Z,10.00
2018-12-02T10:55:12.819Z,9.90
2018-12-02T10:57:16.231Z,10.20
2018-12-02T10:59:19.524Z,10.10
2018-12-02T11:01:34.472Z,10.10
2018-12-02T11:03:37.985Z,10.30
2018-12-02T11:05:41.324Z,10.50
2018-12-02T11:07:44.708Z,10.30
2018-12-02T11:09:48.007Z,10.30
2018-12-02T11:11:52.546Z,10.40
2018-12-02T11:13:55.848Z,10.30
2018-12-02T11:15:59.169Z,10.30
2018-12-02T11:18:02.547Z,10.50
2018-12-02T11:20:07.386Z,10.60
2018-12-02T11:22:12.824Z,10.60
2018-12-02T11:24:16.121Z,10.60
2018-12-02T11:26:19.434Z,10.50
2018-12-02T11:28:22.740Z,10.40
2018-12-02T11:30:26.062Z,10.80
2018-12-02T11:32:30.296Z,10.70
2018-12-02T11:34:33.875Z,10.80
2018-12-02T11:36:37.224Z,11.00
2018-12-02T11:38:40.592Z,11.10
2018-12-02T11:40:45.196Z,11.30
2018-12-02T11:42:51.925Z,11.10
2018-12-02T11:44:55.322Z,11.20
2018-12-02T11:46:58.672Z,11.50
2018-12-02T11:49:02.020Z,11.10
2018-12-02T11:51:06.700Z,11.20
2018-12-02T11:53:11.974Z,11.20
2018-12-02T11:55:18.109Z,11.30
2018-12-02T11:57:26.436Z,11.40
2018-12-02T11:59:25.665Z,11.40
2018-12-02T12:01:29.195Z,11.40
2018-12-02T12:03:34.941Z,11.20
2018-12-02T12:05:38.823Z,11.40
2018-12-02T12:07:42.876Z,11.30
2018-12-02T12:09:46.423Z,11.40
2018-12-02T12:11:49.857Z,11.50
2018-12-02T12:13:54.970Z,11.50
2018-12-02T12:15:58.959Z,11.50
2018-12-02T12:20:14.732Z,11.70
2018-12-02T12:22:18.593Z,11.70
2018-12-02T12:24:27.001Z,11.60
2018-12-02T12:26:31.614Z,11.90
2018-12-02T12:28:35.870Z,11.90
2018-12-02T12:30:39.861Z,12.00
2018-12-02T12:32:43.609Z,11.80
2018-12-02T12:34:48.224Z,12.20
2018-12-02T12:36:52.710Z,11.90
2018-12-02T12:38:56.288Z,12.00
2018-12-02T12:41:00.332Z,12.20
2018-12-02T12:43:13.946Z,12.10
2018-12-02T12:45:19.402Z,12.10
2018-12-02T12:47:23.050Z,12.20
2018-12-02T12:49:26.724Z,12.40
2018-12-02T12:51:30.383Z,12.50
2018-12-02T12:53:33.764Z,12.50
2018-12-02T12:55:38.349Z,12.70
2018-12-02T12:57:42.955Z,12.70
2018-12-02T12:59:46.850Z,12.80
2018-12-02T13:01:50.202Z,12.90
2018-12-02T13:03:53.534Z,12.70
2018-12-02T13:06:00.698Z,13.10
2018-12-02T13:08:04.831Z,13.50
2018-12-02T13:10:10.723Z,13.20
2018-12-02T13:12:14.242Z,13.30
2018-12-02T13:14:17.705Z,13.40
2018-12-02T13:16:21.949Z,13.20
2018-12-02T13:18:25.298Z,13.30
2018-12-02T13:20:34.492Z,13.40
2018-12-02T13:22:37.953Z,13.20
2018-12-02T13:24:41.289Z,13.80
2018-12-02T13:26:46.016Z,13.60
2018-12-02T13:28:49.935Z,13.40
2018-12-02T13:30:53.244Z,13.50
2018-12-02T13:32:56.575Z,13.40
2018-12-02T13:34:59.906Z,13.60
2018-12-02T13:37:04.070Z,13.50
2018-12-02T13:39:10.692Z,13.60
2018-12-02T13:41:14.265Z,13.80
2018-12-02T13:43:21.450Z,13.90
2018-12-02T13:45:26.914Z,17.00
2018-12-02T13:47:31.159Z,15.60
2018-12-02T13:49:34.637Z,16.40
2018-12-02T13:51:38.149Z,16.30
2018-12-02T13:53:48.167Z,18.80
2018-12-02T13:55:51.976Z,20.40
2018-12-02T13:57:56.421Z,23.10
2018-12-02T14:00:00.532Z,23.20
2018-12-02T14:02:04.859Z,23.20
2018-12-02T14:04:10.447Z,21.90
2018-12-02T14:06:14.423Z,21.50
2018-12-02T14:08:21.470Z,20.70
2018-12-02T14:10:25.549Z,21.00
2018-12-02T14:12:28.967Z,20.10
2018-12-02T14:14:35.997Z,19.10
2018-12-02T14:16:46.866Z,16.90
2018-12-02T14:18:51.890Z,16.00
2018-12-02T14:20:57.615Z,15.10
2018-12-02T14:23:06.398Z,14.80
2018-12-02T14:25:14.089Z,14.40
2018-12-02T14:27:19.164Z,14.10
2018-12-02T14:29:29.700Z,13.90
2018-12-02T14:31:35.885Z,13.60
2018-12-02T14:33:39.681Z,13.50
2018-12-02T14:35:44.628Z,13.00
2018-12-02T14:37:48.615Z,13.50
2018-12-02T14:39:54.353Z,12.80
2018-12-02T14:41:58.300Z,13.10
2018-12-02T14:44:01.890Z,13.20
2018-12-02T14:46:06.002Z,13.40
2018-12-02T14:48:10.021Z,13.20
2018-12-02T14:50:16.596Z,13.10
2018-12-02T14:52:20.561Z,13.10
2018-12-02T14:54:25.093Z,13.10
2018-12-02T14:56:30.162Z,12.90
2018-12-02T14:58:34.962Z,12.80
2018-12-02T15:00:39.948Z,13.10
2018-12-02T15:02:44.911Z,13.00
2018-12-02T15:04:49.980Z,12.80
2018-12-02T15:06:56.365Z,12.90
2018-12-02T15:09:01.219Z,12.80
2018-12-02T15:11:09.322Z,12.90
2018-12-02T15:13:14.888Z,12.70
2018-12-02T15:15:19.657Z,12.40
2018-12-02T15:17:24.297Z,12.80
2018-12-02T15:19:28.553Z,12.60
2018-12-02T15:21:33.467Z,12.50
2018-12-02T15:23:37.200Z,12.60
2018-12-02T15:25:41.755Z,12.50
2018-12-02T15:27:46.844Z,12.50
2018-12-02T15:29:51.354Z,12.60
2018-12-02T15:31:56.615Z,12.30
2018-12-02T15:34:01.181Z,12.50
2018-12-02T15:36:05.177Z,12.40
2018-12-02T15:38:09.491Z,12.50
2018-12-02T15:40:14.666Z,12.40
2018-12-02T15:42:20.106Z,12.40
2018-12-02T15:44:25.890Z,12.50
2018-12-02T15:46:29.637Z,12.50
2018-12-02T15:48:34.296Z,12.50
2018-12-02T15:50:39.187Z,12.60
2018-12-02T15:52:45.226Z,12.40
2018-12-02T15:54:50.158Z,12.20
2018-12-02T15:56:54.747Z,12.20
2018-12-02T15:58:59.855Z,12.40
2018-12-02T16:01:04.432Z,12.30
2018-12-02T16:03:09.218Z,12.50
2018-12-02T16:05:14.268Z,12.50
2018-12-02T16:07:18.760Z,12.40
2018-12-02T16:09:23.676Z,12.30
2018-12-02T16:11:28.887Z,12.20
2018-12-02T16:13:35.249Z,12.40
2018-12-02T16:15:40.489Z,12.50
2018-12-02T16:17:45.797Z,12.30
2018-12-02T16:19:50.951Z,12.50
2018-12-02T16:21:55.503Z,12.30
2018-12-02T16:24:01.183Z,12.30
2018-12-02T16:26:05.628Z,12.20
2018-12-02T16:28:12.789Z,12.20
2018-12-02T16:30:18.971Z,12.30
2018-12-02T16:32:25.333Z,12.10
2018-12-02T16:34:32.593Z,12.30
2018-12-02T16:36:38.443Z,12.30
2018-12-02T16:38:44.805Z,13.00
2018-12-02T16:40:51.078Z,12.30
2018-12-02T16:42:57.681Z,12.40
2018-12-02T16:45:03.967Z,12.30
2018-12-02T16:47:10.384Z,12.80
2018-12-02T16:49:16.115Z,12.50
2018-12-02T16:51:23.072Z,12.40
2018-12-02T16:53:30.057Z,12.60
2018-12-02T16:55:45.670Z,12.40
2018-12-02T16:57:54.587Z,13.00
2018-12-02T17:00:01.925Z,12.40
2018-12-02T17:02:10.799Z,12.60
2018-12-02T17:06:23.021Z,12.50
2018-12-02T17:10:34.917Z,12.90
2018-12-02T17:12:41.112Z,12.80
2018-12-02T17:14:47.542Z,12.60
2018-12-02T17:16:53.201Z,13.00
2018-12-02T17:18:58.021Z,13.00
2018-12-02T17:23:08.205Z,12.70
2018-12-02T17:25:14.806Z,12.60
2018-12-02T17:27:20.239Z,12.80
2018-12-02T17:29:26.132Z,12.70
2018-12-02T17:31:37.315Z,13.10
2018-12-02T17:33:42.789Z,12.70
2018-12-02T17:35:48.389Z,12.70
2018-12-02T17:37:56.098Z,12.70
2018-12-02T17:40:01.114Z,12.90
2018-12-02T17:42:13.034Z,12.90
2018-12-02T17:44:18.367Z,12.90
2018-12-02T17:46:23.028Z,13.00
2018-12-02T17:48:28.675Z,11.20
2018-12-02T17:50:34.564Z,12.90
2018-12-02T17:52:39.075Z,13.00
2018-12-02T17:54:44.581Z,12.70
2018-12-02T17:56:49.295Z,12.60
2018-12-02T17:58:58.594Z,13.00
2018-12-02T18:01:04.124Z,12.80
2018-12-02T18:03:11.418Z,12.90
2018-12-02T18:05:17.963Z,13.00
2018-12-02T18:07:22.406Z,12.80
2018-12-02T18:09:28.130Z,13.00
2018-12-02T18:11:34.434Z,13.00
2018-12-02T18:13:40.207Z,12.90
2018-12-02T18:15:46.404Z,12.80
2018-12-02T18:17:51.532Z,13.00
2018-12-02T18:19:59.075Z,12.90
2018-12-02T18:22:04.650Z,12.80
2018-12-02T18:24:10.075Z,12.90
2018-12-02T18:26:14.638Z,12.90
2018-12-02T18:28:19.167Z,12.70
2018-12-02T18:30:25.706Z,12.80
2018-12-02T18:32:31.722Z,12.70
2018-12-02T18:34:37.402Z,12.70
2018-12-02T18:36:43.775Z,12.60
2018-12-02T18:38:49.820Z,12.60
2018-12-02T18:40:59.984Z,12.70
2018-12-02T18:43:05.759Z,12.70
2018-12-02T18:45:11.275Z,12.50
2018-12-02T18:47:17.199Z,12.50
2018-12-02T18:49:23.066Z,12.50
2018-12-02T18:51:29.450Z,12.70
2018-12-02T18:55:00.094Z,12.70
2018-12-02T18:57:05.305Z,12.50
2018-12-02T18:59:10.587Z,12.50
2018-12-02T19:01:15.403Z,12.70
2018-12-02T19:03:22.623Z,12.50
2018-12-02T19:05:28.922Z,12.80
2018-12-02T19:07:33.798Z,12.70
2018-12-02T19:09:40.004Z,12.80
2018-12-02T19:11:44.998Z,12.90
2018-12-02T19:25:13.608Z,12.50
2018-12-02T19:29:44.701Z,12.30
2018-12-02T19:34:15.393Z,12.70
2018-12-02T19:36:25.836Z,12.50
2018-12-02T19:38:29.554Z,12.60
2018-12-02T19:40:34.843Z,12.70
2018-12-02T19:42:40.117Z,11.50
2018-12-02T19:44:45.800Z,12.60
2018-12-02T19:46:50.782Z,12.40
2018-12-02T19:48:55.993Z,12.60
2018-12-02T19:51:00.456Z,12.50
2018-12-02T19:53:06.407Z,12.70
2018-12-02T19:55:12.277Z,12.60
2018-12-02T19:57:16.811Z,12.40
2018-12-02T19:59:21.715Z,12.60
2018-12-02T20:01:25.286Z,12.40
2018-12-02T20:03:30.339Z,12.50
2018-12-02T20:07:41.743Z,12.90
2018-12-02T20:09:46.700Z,12.50
2018-12-02T20:11:51.792Z,12.70
2018-12-02T20:13:57.085Z,12.40
2018-12-02T20:16:06.679Z,12.70
2018-12-02T20:18:12.682Z,12.60
2018-12-02T20:20:24.141Z,12.80
2018-12-02T20:22:28.886Z,12.60
2018-12-02T20:26:46.107Z,12.40
2018-12-02T20:28:53.788Z,12.50
2018-12-02T20:30:59.692Z,12.40
2018-12-02T20:33:04.272Z,12.60
2018-12-02T20:35:10.278Z,12.30
2018-12-02T20:37:15.551Z,12.70
2018-12-02T20:39:21.091Z,12.50
2018-12-02T20:41:25.597Z,12.80
2018-12-02T20:43:30.659Z,12.50
2018-12-02T20:45:35.111Z,12.40
2018-12-02T20:47:40.250Z,12.70
2018-12-02T20:49:46.112Z,12.60
2018-12-02T20:51:50.380Z,12.40
2018-12-02T20:53:54.148Z,12.40
2018-12-02T20:55:58.264Z,12.50
2018-12-02T20:58:03.108Z,12.60
2018-12-02T21:00:10.637Z,12.70
2018-12-02T21:04:20.992Z,12.40
2018-12-02T21:06:25.893Z,12.60
2018-12-02T21:08:30.539Z,12.50
2018-12-02T21:10:35.958Z,12.60
2018-12-02T21:12:41.866Z,12.60
2018-12-02T21:14:47.271Z,12.80
2018-12-02T21:16:53.575Z,12.70
2018-12-02T21:18:58.554Z,12.60
2018-12-02T21:21:03.762Z,12.50
2018-12-02T21:23:08.661Z,12.50
2018-12-02T21:25:18.075Z,12.70
2018-12-02T21:29:25.038Z,12.80
2018-12-02T21:33:32.804Z,12.50
2018-12-02T21:35:36.717Z,12.50
2018-12-02T21:37:40.499Z,12.60
2018-12-02T21:42:15.303Z,12.50
2018-12-02T21:44:30.067Z,12.50
2018-12-02T21:53:27.798Z,12.40
2018-12-02T22:02:36.510Z,12.60
2018-12-02T22:04:39.734Z,12.50
2018-12-02T22:06:42.882Z,12.40
2018-12-02T22:08:46.022Z,12.60
2018-12-02T22:10:49.231Z,12.50
2018-12-02T22:12:52.716Z,12.60
2018-12-02T22:14:56.235Z,12.60
2018-12-02T22:16:59.429Z,12.60
2018-12-02T22:19:02.591Z,12.70
2018-12-02T22:21:05.790Z,12.50
2018-12-02T22:23:08.923Z,12.60
2018-12-02T22:25:16.458Z,12.50
2018-12-02T22:27:19.758Z,12.60
2018-12-02T22:29:22.954Z,12.50
2018-12-02T22:31:26.141Z,12.40
2018-12-02T22:33:29.368Z,12.40
2018-12-02T22:35:32.763Z,12.30
2018-12-02T22:37:35.894Z,12.30
2018-12-02T22:39:39.078Z,12.30
2018-12-02T22:41:42.250Z,12.20
2018-12-02T22:43:45.482Z,12.40
2018-12-02T22:45:48.702Z,12.20
2018-12-02T22:49:54.906Z,12.10
2018-12-02T22:51:58.114Z,12.20
2018-12-02T22:54:01.243Z,12.30
2018-12-02T22:56:04.738Z,12.20
2018-12-02T22:58:07.890Z,12.20
2018-12-02T23:00:19.618Z,12.40
2018-12-02T23:02:26.795Z,12.30
2018-12-02T23:04:29.995Z,12.10
2018-12-02T23:06:33.204Z,12.50
2018-12-02T23:08:36.422Z,12.40
2018-12-02T23:10:39.735Z,12.20
2018-12-02T23:12:42.981Z,12.30
2018-12-02T23:14:46.482Z,12.30
2018-12-02T23:17:01.193Z,12.20
2018-12-02T23:19:04.878Z,12.20
2018-12-02T23:21:08.125Z,12.30
2018-12-02T23:23:11.271Z,12.00
2018-12-02T23:25:15.179Z,12.10
2018-12-02T23:27:18.427Z,12.10
2018-12-02T23:29:21.587Z,12.10
2018-12-02T23:31:24.738Z,12.00
2018-12-02T23:33:27.990Z,12.20
2018-12-02T23:35:31.126Z,12.10
2018-12-02T23:37:34.479Z,12.20
2018-12-02T23:39:38.693Z,12.00
2018-12-02T23:41:40.779Z,12.00
2018-12-02T23:43:43.932Z,12.10
2018-12-02T23:45:47.078Z,11.90
2018-12-02T23:47:50.246Z,11.90
2018-12-02T23:49:53.411Z,12.00
2018-12-02T23:51:57.001Z,12.00
2018-12-02T23:54:00.146Z,12.00
2018-12-02T23:56:03.275Z,11.90
2018-12-02T23:58:06.827Z,11.70
